sensor_id;sensor_type;location;lat;lon;timestamp;pressure;altitude;pressure_sealevel;temperature;humidity
6134;BME280;3098;42.678;23.364;2023-02-12T00:00:35;95858.88;;;0.16;51.49
6134;BME280;3098;42.678;23.364;2023-02-12T00:03:03;95827.63;;;0.10;51.62
6134;BME280;3098;42.678;23.364;2023-02-12T00:05:31;95720.72;;;-0.57;51.78
6134;BME280;3098;42.678;23.364;2023-02-12T00:07:58;95834.94;;;0.19;51.88
6134;BME280;3098;42.678;23.364;2023-02-12T00:10:25;95861.91;;;0.43;51.88
6134;BME280;3098;42.678;23.364;2023-02-12T00:12:53;95865.69;;;0.47;51.49
6134;BME280;3098;42.678;23.364;2023-02-12T00:15:23;95865.75;;;0.58;51.24
6134;BME280;3098;42.678;23.364;2023-02-12T00:17:50;95864.94;;;0.58;51.25
6134;BME280;3098;42.678;23.364;2023-02-12T00:20:18;95856.19;;;0.52;50.94
6134;BME280;3098;42.678;23.364;2023-02-12T00:22:45;95711.84;;;-0.49;51.38
6134;BME280;3098;42.678;23.364;2023-02-12T00:25:12;95885.13;;;0.51;51.32
6134;BME280;3098;42.678;23.364;2023-02-12T00:27:40;95861.97;;;0.54;51.20
6134;BME280;3098;42.678;23.364;2023-02-12T00:30:09;95706.03;;;-0.51;50.75
6134;BME280;3098;42.678;23.364;2023-02-12T00:32:37;95503.78;;;-1.71;51.05
6134;BME280;3098;42.678;23.364;2023-02-12T00:35:05;95749.72;;;-0.17;51.24
6134;BME280;3098;42.678;23.364;2023-02-12T00:37:33;95851.41;;;0.49;51.34
6134;BME280;3098;42.678;23.364;2023-02-12T00:40:01;95814.06;;;0.19;51.30
6134;BME280;3098;42.678;23.364;2023-02-12T00:42:28;95748.22;;;-0.24;51.57
6134;BME280;3098;42.678;23.364;2023-02-12T00:44:55;95741.72;;;-0.33;51.59
6134;BME280;3098;42.678;23.364;2023-02-12T00:47:22;95845.78;;;0.34;51.95
6134;BME280;3098;42.678;23.364;2023-02-12T00:49:51;95831.78;;;0.29;51.56
6134;BME280;3098;42.678;23.364;2023-02-12T00:52:18;95803.34;;;0.27;51.37
6134;BME280;3098;42.678;23.364;2023-02-12T00:54:45;95828.44;;;0.40;51.52
6134;BME280;3098;42.678;23.364;2023-02-12T00:57:12;95780.38;;;0.18;51.35
6134;BME280;3098;42.678;23.364;2023-02-12T00:59:40;95821.78;;;0.44;51.42
6134;BME280;3098;42.678;23.364;2023-02-12T01:02:07;95718.31;;;-0.22;51.32
6134;BME280;3098;42.678;23.364;2023-02-12T01:04:34;95735.13;;;-0.18;51.68
6134;BME280;3098;42.678;23.364;2023-02-12T01:07:03;95820.13;;;0.31;51.85
6134;BME280;3098;42.678;23.364;2023-02-12T01:09:31;95822.72;;;0.31;52.11
6134;BME280;3098;42.678;23.364;2023-02-12T01:11:58;95824.25;;;0.39;51.80
6134;BME280;3098;42.678;23.364;2023-02-12T01:14:25;95792.16;;;0.20;51.83
6134;BME280;3098;42.678;23.364;2023-02-12T01:16:53;95673.94;;;-0.63;51.67
6134;BME280;3098;42.678;23.364;2023-02-12T01:19:19;95662.72;;;-0.64;51.78
6134;BME280;3098;42.678;23.364;2023-02-12T01:21:47;95835.22;;;0.59;51.38
6134;BME280;3098;42.678;23.364;2023-02-12T01:24:16;95837.69;;;0.54;51.67
6134;BME280;3098;42.678;23.364;2023-02-12T01:26:43;95791.84;;;0.17;52.04
6134;BME280;3098;42.678;23.364;2023-02-12T01:29:10;95584.19;;;-1.15;52.62
6134;BME280;3098;42.678;23.364;2023-02-12T01:31:38;95747.34;;;-0.18;53.07
6134;BME280;3098;42.678;23.364;2023-02-12T01:34:07;95843.53;;;0.38;52.89
6134;BME280;3098;42.678;23.364;2023-02-12T01:36:34;95798.88;;;0.16;53.36
6134;BME280;3098;42.678;23.364;2023-02-12T01:39:02;95829.34;;;0.34;53.39
6134;BME280;3098;42.678;23.364;2023-02-12T01:41:33;95790.25;;;0.16;53.46
6134;BME280;3098;42.678;23.364;2023-02-12T01:44:13;95810.44;;;0.20;53.74
6134;BME280;3098;42.678;23.364;2023-02-12T01:46:42;95829.50;;;0.21;53.88
6134;BME280;3098;42.678;23.364;2023-02-12T01:49:13;95822.34;;;0.16;54.26
6134;BME280;3098;42.678;23.364;2023-02-12T01:51:42;95712.34;;;-0.59;54.97
6134;BME280;3098;42.678;23.364;2023-02-12T01:54:12;95795.47;;;-0.03;54.95
6134;BME280;3098;42.678;23.364;2023-02-12T01:56:42;95759.88;;;-0.27;55.33
6134;BME280;3098;42.678;23.364;2023-02-12T01:59:10;95762.94;;;-0.30;55.63
6134;BME280;3098;42.678;23.364;2023-02-12T02:01:38;95755.34;;;-0.49;55.94
6134;BME280;3098;42.678;23.364;2023-02-12T02:04:08;95681.81;;;-0.88;56.61
6134;BME280;3098;42.678;23.364;2023-02-12T02:06:41;95818.44;;;-0.11;56.57
6134;BME280;3098;42.678;23.364;2023-02-12T02:09:10;95792.59;;;-0.31;57.30
6134;BME280;3098;42.678;23.364;2023-02-12T02:11:37;95815.50;;;-0.33;58.00
6134;BME280;3098;42.678;23.364;2023-02-12T02:14:22;95792.91;;;-0.57;58.79
6134;BME280;3098;42.678;23.364;2023-02-12T02:17:25;95630.69;;;-1.80;59.84
6134;BME280;3098;42.678;23.364;2023-02-12T02:23:08;95821.06;;;-0.66;61.33
6134;BME280;3098;42.678;23.364;2023-02-12T02:26:12;95768.84;;;-0.95;62.60
6134;BME280;3098;42.678;23.364;2023-02-12T02:29:03;95694.63;;;-1.47;63.04
6134;BME280;3098;42.678;23.364;2023-02-12T02:31:41;95724.91;;;-1.28;63.00
6134;BME280;3098;42.678;23.364;2023-02-12T02:34:13;95801.94;;;-0.78;63.56
6134;BME280;3098;42.678;23.364;2023-02-12T02:36:45;95775.94;;;-1.02;64.11
6134;BME280;3098;42.678;23.364;2023-02-12T02:39:16;95791.19;;;-0.88;64.28
6134;BME280;3098;42.678;23.364;2023-02-12T02:41:48;95768.88;;;-1.02;64.54
6134;BME280;3098;42.678;23.364;2023-02-12T02:44:21;95751.16;;;-1.11;64.64
6134;BME280;3098;42.678;23.364;2023-02-12T02:46:52;95751.69;;;-1.03;65.25
6134;BME280;3098;42.678;23.364;2023-02-12T02:49:24;95730.97;;;-1.16;65.02
6134;BME280;3098;42.678;23.364;2023-02-12T02:52:03;95791.47;;;-0.71;65.27
6134;BME280;3098;42.678;23.364;2023-02-12T02:54:34;95777.69;;;-0.78;64.90
6134;BME280;3098;42.678;23.364;2023-02-12T02:57:15;95805.72;;;-0.55;65.11
6134;BME280;3098;42.678;23.364;2023-02-12T02:59:48;95759.47;;;-0.78;64.85
6134;BME280;3098;42.678;23.364;2023-02-12T03:02:24;95479.53;;;-2.51;64.63
6134;BME280;3098;42.678;23.364;2023-02-12T03:04:55;95786.09;;;-0.58;64.29
6134;BME280;3098;42.678;23.364;2023-02-12T03:07:27;95777.47;;;-0.59;64.44
6134;BME280;3098;42.678;23.364;2023-02-12T03:10:00;95759.19;;;-0.52;63.88
6134;BME280;3098;42.678;23.364;2023-02-12T03:12:33;95773.00;;;-0.51;63.94
6134;BME280;3098;42.678;23.364;2023-02-12T03:15:08;95807.31;;;-0.18;63.58
6134;BME280;3098;42.678;23.364;2023-02-12T03:17:40;95800.34;;;-0.24;63.62
6134;BME280;3098;42.678;23.364;2023-02-12T03:20:13;95795.56;;;-0.27;63.92
6134;BME280;3098;42.678;23.364;2023-02-12T03:22:47;95768.38;;;-0.49;64.23
6134;BME280;3098;42.678;23.364;2023-02-12T03:25:19;95791.09;;;-0.38;64.93
6134;BME280;3098;42.678;23.364;2023-02-12T03:27:51;95785.81;;;-0.32;64.67
6134;BME280;3098;42.678;23.364;2023-02-12T03:30:24;95789.94;;;-0.24;64.11
6134;BME280;3098;42.678;23.364;2023-02-12T03:33:08;95755.03;;;-0.41;63.87
6134;BME280;3098;42.678;23.364;2023-02-12T03:35:43;95764.16;;;-0.32;63.18
6134;BME280;3098;42.678;23.364;2023-02-12T03:38:16;95793.59;;;-0.14;63.07
6134;BME280;3098;42.678;23.364;2023-02-12T03:40:51;95758.00;;;-0.38;63.15
6134;BME280;3098;42.678;23.364;2023-02-12T03:43:23;95788.19;;;-0.12;63.38
6134;BME280;3098;42.678;23.364;2023-02-12T03:45:55;95714.81;;;-0.64;62.98
6134;BME280;3098;42.678;23.364;2023-02-12T03:48:29;95792.97;;;-0.09;62.86
6134;BME280;3098;42.678;23.364;2023-02-12T03:51:03;95748.09;;;-0.47;62.76
6134;BME280;3098;42.678;23.364;2023-02-12T03:53:31;95798.97;;;-0.09;63.05
6134;BME280;3098;42.678;23.364;2023-02-12T03:56:02;95801.22;;;-0.12;62.64
6134;BME280;3098;42.678;23.364;2023-02-12T03:58:33;95794.09;;;-0.05;62.82
6134;BME280;3098;42.678;23.364;2023-02-12T04:01:02;95733.75;;;-0.38;62.87
6134;BME280;3098;42.678;23.364;2023-02-12T04:03:31;95769.13;;;-0.13;62.74
6134;BME280;3098;42.678;23.364;2023-02-12T04:05:59;95784.16;;;0.04;62.98
6134;BME280;3098;42.678;23.364;2023-02-12T04:08:27;95789.38;;;0.04;62.78
6134;BME280;3098;42.678;23.364;2023-02-12T04:11:04;95793.81;;;0.03;62.67
6134;BME280;3098;42.678;23.364;2023-02-12T04:13:41;95713.41;;;-0.48;62.83
6134;BME280;3098;42.678;23.364;2023-02-12T04:16:16;95799.50;;;0.12;63.15
6134;BME280;3098;42.678;23.364;2023-02-12T04:18:48;95670.09;;;-0.79;63.05
6134;BME280;3098;42.678;23.364;2023-02-12T04:21:30;95748.47;;;-0.26;63.02
6134;BME280;3098;42.678;23.364;2023-02-12T04:24:08;95809.44;;;0.03;63.17
6134;BME280;3098;42.678;23.364;2023-02-12T04:26:44;95814.59;;;0.10;63.44
6134;BME280;3098;42.678;23.364;2023-02-12T04:29:17;95827.50;;;0.05;63.32
6134;BME280;3098;42.678;23.364;2023-02-12T04:31:50;95642.78;;;-1.06;63.47
6134;BME280;3098;42.678;23.364;2023-02-12T04:34:27;95765.66;;;-0.25;63.60
6134;BME280;3098;42.678;23.364;2023-02-12T04:37:03;95815.03;;;0.07;63.68
6134;BME280;3098;42.678;23.364;2023-02-12T04:39:34;95813.00;;;0.09;63.98
6134;BME280;3098;42.678;23.364;2023-02-12T04:42:03;95586.47;;;-1.37;63.43
6134;BME280;3098;42.678;23.364;2023-02-12T04:44:37;95767.41;;;-0.19;63.65
6134;BME280;3098;42.678;23.364;2023-02-12T04:47:05;95756.47;;;-0.27;63.87
6134;BME280;3098;42.678;23.364;2023-02-12T04:49:33;95772.63;;;-0.19;64.16
6134;BME280;3098;42.678;23.364;2023-02-12T04:52:00;95789.56;;;-0.10;64.33
6134;BME280;3098;42.678;23.364;2023-02-12T04:54:28;95736.81;;;-0.41;64.36
6134;BME280;3098;42.678;23.364;2023-02-12T04:56:56;95777.88;;;-0.07;64.41
6134;BME280;3098;42.678;23.364;2023-02-12T04:59:23;95600.06;;;-1.17;64.20
6134;BME280;3098;42.678;23.364;2023-02-12T05:01:50;95821.47;;;0.22;64.13
6134;BME280;3098;42.678;23.364;2023-02-12T05:04:17;95824.78;;;0.29;64.11
6134;BME280;3098;42.678;23.364;2023-02-12T05:06:47;95819.34;;;0.31;63.80
6134;BME280;3098;42.678;23.364;2023-02-12T05:09:16;95749.16;;;-0.37;63.87
6134;BME280;3098;42.678;23.364;2023-02-12T05:11:44;95647.16;;;-0.70;63.53
6134;BME280;3098;42.678;23.364;2023-02-12T05:14:11;95823.44;;;0.38;63.67
6134;BME280;3098;42.678;23.364;2023-02-12T05:16:39;95825.25;;;0.38;63.43
6134;BME280;3098;42.678;23.364;2023-02-12T05:19:07;95833.00;;;0.44;63.69
6134;BME280;3098;42.678;23.364;2023-02-12T05:21:35;95832.34;;;0.49;63.13
6134;BME280;3098;42.678;23.364;2023-02-12T05:24:05;95857.44;;;0.50;63.30
6134;BME280;3098;42.678;23.364;2023-02-12T05:26:33;95842.72;;;0.67;63.21
6134;BME280;3098;42.678;23.364;2023-02-12T05:29:00;95818.41;;;0.55;63.06
6134;BME280;3098;42.678;23.364;2023-02-12T05:31:28;95852.28;;;0.73;63.37
6134;BME280;3098;42.678;23.364;2023-02-12T05:33:55;95842.06;;;0.72;63.16
6134;BME280;3098;42.678;23.364;2023-02-12T05:36:22;95753.03;;;0.20;62.46
6134;BME280;3098;42.678;23.364;2023-02-12T05:38:50;95865.38;;;0.85;62.37
6134;BME280;3098;42.678;23.364;2023-02-12T05:41:21;95869.56;;;0.86;62.70
6134;BME280;3098;42.678;23.364;2023-02-12T05:43:49;95868.00;;;0.85;63.28
6134;BME280;3098;42.678;23.364;2023-02-12T05:46:17;95829.06;;;0.53;64.07
6134;BME280;3098;42.678;23.364;2023-02-12T05:48:45;95848.31;;;0.71;64.92
6134;BME280;3098;42.678;23.364;2023-02-12T05:51:14;95837.59;;;0.61;65.24
6134;BME280;3098;42.678;23.364;2023-02-12T05:53:42;95869.44;;;0.81;65.93
6134;BME280;3098;42.678;23.364;2023-02-12T05:56:11;95877.06;;;0.82;66.96
6134;BME280;3098;42.678;23.364;2023-02-12T05:58:43;95879.75;;;0.76;68.11
6134;BME280;3098;42.678;23.364;2023-02-12T06:01:13;95885.88;;;0.70;70.06
6134;BME280;3098;42.678;23.364;2023-02-12T06:03:40;95802.56;;;0.09;73.14
6134;BME280;3098;42.678;23.364;2023-02-12T06:06:09;95887.94;;;0.49;77.14
6134;BME280;3098;42.678;23.364;2023-02-12T06:08:36;95764.59;;;-0.35;78.28
6134;BME280;3098;42.678;23.364;2023-02-12T06:11:05;95882.31;;;0.34;79.50
6134;BME280;3098;42.678;23.364;2023-02-12T06:13:34;95866.53;;;0.29;79.53
6134;BME280;3098;42.678;23.364;2023-02-12T06:16:03;95839.72;;;0.22;79.83
6134;BME280;3098;42.678;23.364;2023-02-12T06:18:30;95777.47;;;-0.22;79.71
6134;BME280;3098;42.678;23.364;2023-02-12T06:20:58;95856.31;;;0.28;80.00
6134;BME280;3098;42.678;23.364;2023-02-12T06:23:25;95840.06;;;0.26;80.30
6134;BME280;3098;42.678;23.364;2023-02-12T06:25:55;95792.66;;;-0.01;81.49
6134;BME280;3098;42.678;23.364;2023-02-12T06:28:22;95848.75;;;0.38;82.33
6134;BME280;3098;42.678;23.364;2023-02-12T06:30:50;95887.75;;;0.63;83.13
6134;BME280;3098;42.678;23.364;2023-02-12T06:33:20;95884.00;;;0.58;85.62
6134;BME280;3098;42.678;23.364;2023-02-12T06:35:48;95818.44;;;0.07;88.34
6134;BME280;3098;42.678;23.364;2023-02-12T06:38:16;95598.28;;;-1.41;90.53
6134;BME280;3098;42.678;23.364;2023-02-12T06:40:43;95796.22;;;-0.14;91.79
6134;BME280;3098;42.678;23.364;2023-02-12T06:43:10;95919.75;;;0.58;92.41
6134;BME280;3098;42.678;23.364;2023-02-12T06:45:38;95906.78;;;0.51;92.96
6134;BME280;3098;42.678;23.364;2023-02-12T06:48:06;95895.09;;;0.54;94.01
6134;BME280;3098;42.678;23.364;2023-02-12T06:50:35;95899.84;;;0.45;95.14
6134;BME280;3098;42.678;23.364;2023-02-12T06:53:02;95903.25;;;0.46;95.92
6134;BME280;3098;42.678;23.364;2023-02-12T06:55:30;95771.41;;;-0.34;96.22
6134;BME280;3098;42.678;23.364;2023-02-12T06:57:57;95904.41;;;0.50;96.88
6134;BME280;3098;42.678;23.364;2023-02-12T07:00:24;95869.84;;;0.36;96.87
6134;BME280;3098;42.678;23.364;2023-02-12T07:02:53;95905.91;;;0.57;97.27
6134;BME280;3098;42.678;23.364;2023-02-12T07:05:20;95904.53;;;0.55;97.34
6134;BME280;3098;42.678;23.364;2023-02-12T07:07:49;95782.75;;;-0.11;97.48
6134;BME280;3098;42.678;23.364;2023-02-12T07:10:17;95868.50;;;0.34;97.60
6134;BME280;3098;42.678;23.364;2023-02-12T07:12:45;95748.28;;;-0.31;98.54
6134;BME280;3098;42.678;23.364;2023-02-12T07:15:13;95818.19;;;0.09;98.33
6134;BME280;3098;42.678;23.364;2023-02-12T07:17:41;95870.38;;;0.27;98.43
6134;BME280;3098;42.678;23.364;2023-02-12T07:20:09;95913.53;;;0.59;98.95
6134;BME280;3098;42.678;23.364;2023-02-12T07:22:38;95827.50;;;0.05;98.47
6134;BME280;3098;42.678;23.364;2023-02-12T07:25:07;95911.13;;;0.57;98.30
6134;BME280;3098;42.678;23.364;2023-02-12T07:27:37;95908.06;;;0.61;98.53
6134;BME280;3098;42.678;23.364;2023-02-12T07:30:05;95904.47;;;0.62;98.46
6134;BME280;3098;42.678;23.364;2023-02-12T07:32:32;95893.16;;;0.49;98.16
6134;BME280;3098;42.678;23.364;2023-02-12T07:35:01;95910.00;;;0.53;98.66
6134;BME280;3098;42.678;23.364;2023-02-12T07:37:29;95922.69;;;0.50;98.98
6134;BME280;3098;42.678;23.364;2023-02-12T07:39:56;95871.69;;;0.18;99.09
6134;BME280;3098;42.678;23.364;2023-02-12T07:42:26;95916.66;;;0.49;98.60
6134;BME280;3098;42.678;23.364;2023-02-12T07:44:55;95886.59;;;0.29;98.74
6134;BME280;3098;42.678;23.364;2023-02-12T07:47:22;95879.31;;;0.19;98.83
6134;BME280;3098;42.678;23.364;2023-02-12T07:49:50;95662.53;;;-1.17;98.65
6134;BME280;3098;42.678;23.364;2023-02-12T07:52:17;95749.47;;;-0.63;98.49
6134;BME280;3098;42.678;23.364;2023-02-12T07:54:46;95926.78;;;0.57;98.92
6134;BME280;3098;42.678;23.364;2023-02-12T07:57:14;95883.53;;;0.32;98.47
6134;BME280;3098;42.678;23.364;2023-02-12T07:59:43;95915.53;;;0.57;98.94
6134;BME280;3098;42.678;23.364;2023-02-12T08:02:10;95914.47;;;0.46;99.12
6134;BME280;3098;42.678;23.364;2023-02-12T08:04:37;95914.41;;;0.53;99.32
6134;BME280;3098;42.678;23.364;2023-02-12T08:07:04;95916.66;;;0.49;99.34
6134;BME280;3098;42.678;23.364;2023-02-12T08:09:32;95839.03;;;-0.03;99.56
6134;BME280;3098;42.678;23.364;2023-02-12T08:11:59;95921.66;;;0.51;99.83
6134;BME280;3098;42.678;23.364;2023-02-12T08:14:28;95891.31;;;0.38;100.00
6134;BME280;3098;42.678;23.364;2023-02-12T08:16:58;95924.66;;;0.66;100.00
6134;BME280;3098;42.678;23.364;2023-02-12T08:19:25;95916.97;;;0.71;100.00
6134;BME280;3098;42.678;23.364;2023-02-12T08:21:56;95926.84;;;0.69;99.53
6134;BME280;3098;42.678;23.364;2023-02-12T08:24:24;95928.81;;;0.74;99.61
6134;BME280;3098;42.678;23.364;2023-02-12T08:26:55;95930.38;;;0.75;99.66
6134;BME280;3098;42.678;23.364;2023-02-12T08:29:26;95932.19;;;0.74;99.78
6134;BME280;3098;42.678;23.364;2023-02-12T08:31:56;95901.28;;;0.60;99.45
6134;BME280;3098;42.678;23.364;2023-02-12T08:34:27;95894.41;;;0.47;99.00
6134;BME280;3098;42.678;23.364;2023-02-12T08:36:56;95933.66;;;0.70;99.43
6134;BME280;3098;42.678;23.364;2023-02-12T08:39:27;95862.59;;;0.20;99.39
6134;BME280;3098;42.678;23.364;2023-02-12T08:41:56;95967.34;;;0.90;98.88
6134;BME280;3098;42.678;23.364;2023-02-12T08:44:28;95802.16;;;-0.07;98.41
6134;BME280;3098;42.678;23.364;2023-02-12T08:46:57;95962.00;;;0.85;98.46
6134;BME280;3098;42.678;23.364;2023-02-12T08:49:28;95966.59;;;1.01;98.79
6134;BME280;3098;42.678;23.364;2023-02-12T08:51:58;95979.59;;;1.07;98.20
6134;BME280;3098;42.678;23.364;2023-02-12T08:54:28;95959.38;;;1.14;98.06
6134;BME280;3098;42.678;23.364;2023-02-12T08:57:00;95977.00;;;1.19;97.59
6134;BME280;3098;42.678;23.364;2023-02-12T08:59:28;95984.06;;;1.19;97.09
6134;BME280;3098;42.678;23.364;2023-02-12T09:01:57;95962.56;;;1.16;96.50
6134;BME280;3098;42.678;23.364;2023-02-12T09:04:29;95979.38;;;1.21;97.44
6134;BME280;3098;42.678;23.364;2023-02-12T09:07:00;95791.94;;;-0.08;97.18
6134;BME280;3098;42.678;23.364;2023-02-12T09:09:28;95920.19;;;0.73;97.47
6134;BME280;3098;42.678;23.364;2023-02-12T09:11:57;95980.19;;;1.21;97.85
6134;BME280;3098;42.678;23.364;2023-02-12T09:14:24;95927.94;;;0.91;97.63
6134;BME280;3098;42.678;23.364;2023-02-12T09:16:53;95992.16;;;1.40;97.64
6134;BME280;3098;42.678;23.364;2023-02-12T09:19:23;95984.34;;;1.40;97.22
6134;BME280;3098;42.678;23.364;2023-02-12T09:21:54;95570.91;;;-1.25;96.70
6134;BME280;3098;42.678;23.364;2023-02-12T09:24:23;95986.16;;;1.40;97.65
6134;BME280;3098;42.678;23.364;2023-02-12T09:26:51;96000.38;;;1.44;97.50
6134;BME280;3098;42.678;23.364;2023-02-12T09:29:19;95989.56;;;1.40;97.80
6134;BME280;3098;42.678;23.364;2023-02-12T09:31:48;95536.16;;;-1.49;97.26
6134;BME280;3098;42.678;23.364;2023-02-12T09:34:19;95840.91;;;0.68;97.13
6134;BME280;3098;42.678;23.364;2023-02-12T09:36:51;96004.75;;;1.85;96.74
6134;BME280;3098;42.678;23.364;2023-02-12T09:39:23;96011.38;;;1.87;95.39
6134;BME280;3098;42.678;23.364;2023-02-12T09:42:12;95565.81;;;-1.02;94.93
6134;BME280;3098;42.678;23.364;2023-02-12T09:44:59;96001.38;;;1.84;95.07
6134;BME280;3098;42.678;23.364;2023-02-12T09:47:42;95930.34;;;1.46;94.84
6134;BME280;3098;42.678;23.364;2023-02-12T09:50:24;96013.38;;;1.73;94.33
6134;BME280;3098;42.678;23.364;2023-02-12T09:52:55;96019.53;;;1.91;95.12
6134;BME280;3098;42.678;23.364;2023-02-12T09:55:29;95858.91;;;0.87;94.70
6134;BME280;3098;42.678;23.364;2023-02-12T09:58:01;95860.06;;;1.03;94.81
6134;BME280;3098;42.678;23.364;2023-02-12T10:00:31;96013.31;;;2.15;94.44
6134;BME280;3098;42.678;23.364;2023-02-12T10:03:00;95782.50;;;1.15;93.12
6134;BME280;3098;42.678;23.364;2023-02-12T10:05:31;95912.25;;;2.14;91.29
6134;BME280;3098;42.678;23.364;2023-02-12T10:08:21;96023.59;;;3.19;88.68
6134;BME280;3098;42.678;23.364;2023-02-12T10:11:04;95873.16;;;2.36;87.46
6134;BME280;3098;42.678;23.364;2023-02-12T10:13:39;95983.47;;;3.19;86.63
6134;BME280;3098;42.678;23.364;2023-02-12T10:16:36;95938.41;;;2.77;85.37
6134;BME280;3098;42.678;23.364;2023-02-12T10:19:22;96009.19;;;3.33;84.80
6134;BME280;3098;42.678;23.364;2023-02-12T10:22:00;96014.72;;;3.65;84.48
6134;BME280;3098;42.678;23.364;2023-02-12T10:24:51;95842.63;;;2.81;82.24
6134;BME280;3098;42.678;23.364;2023-02-12T10:27:34;96017.75;;;3.74;82.05
6134;BME280;3098;42.678;23.364;2023-02-12T10:30:13;95997.91;;;3.49;81.73
6134;BME280;3098;42.678;23.364;2023-02-12T10:32:45;95976.56;;;3.29;82.30
6134;BME280;3098;42.678;23.364;2023-02-12T10:35:15;95949.88;;;2.87;82.78
6134;BME280;3098;42.678;23.364;2023-02-12T10:37:50;95551.63;;;0.30;83.43
6134;BME280;3098;42.678;23.364;2023-02-12T10:40:28;96026.81;;;3.38;84.28
6134;BME280;3098;42.678;23.364;2023-02-12T10:43:01;95626.03;;;0.90;82.99
6134;BME280;3098;42.678;23.364;2023-02-12T10:45:32;96009.47;;;3.48;83.49
6134;BME280;3098;42.678;23.364;2023-02-12T10:48:07;96008.69;;;3.65;83.13
6134;BME280;3098;42.678;23.364;2023-02-12T10:50:49;96006.38;;;3.68;83.05
6134;BME280;3098;42.678;23.364;2023-02-12T10:53:20;96011.22;;;3.76;82.42
6134;BME280;3098;42.678;23.364;2023-02-12T10:55:52;95913.56;;;3.24;81.08
6134;BME280;3098;42.678;23.364;2023-02-12T10:58:35;95878.03;;;2.83;80.93
6134;BME280;3098;42.678;23.364;2023-02-12T11:01:03;96014.69;;;3.48;82.11
6134;BME280;3098;42.678;23.364;2023-02-12T11:03:32;96016.91;;;3.40;83.88
6134;BME280;3098;42.678;23.364;2023-02-12T11:06:13;95980.19;;;3.40;82.75
6134;BME280;3098;42.678;23.364;2023-02-12T11:08:42;96039.47;;;3.41;83.19
6134;BME280;3098;42.678;23.364;2023-02-12T11:11:12;95681.09;;;1.52;82.61
6134;BME280;3098;42.678;23.364;2023-02-12T11:13:45;95954.44;;;3.54;81.53
6134;BME280;3098;42.678;23.364;2023-02-12T11:16:27;95960.97;;;3.84;80.71
6134;BME280;3098;42.678;23.364;2023-02-12T11:19:01;95868.69;;;3.21;80.08
6134;BME280;3098;42.678;23.364;2023-02-12T11:21:31;95938.84;;;4.14;78.53
6134;BME280;3098;42.678;23.364;2023-02-12T11:24:25;96005.31;;;4.96;75.96
6134;BME280;3098;42.678;23.364;2023-02-12T11:27:11;95826.47;;;3.94;74.07
6134;BME280;3098;42.678;23.364;2023-02-12T11:29:41;95928.22;;;4.47;73.93
6134;BME280;3098;42.678;23.364;2023-02-12T11:32:16;95987.00;;;4.41;75.83
6134;BME280;3098;42.678;23.364;2023-02-12T11:35:04;95954.25;;;4.48;75.75
6134;BME280;3098;42.678;23.364;2023-02-12T11:37:32;95983.56;;;4.40;76.75
6134;BME280;3098;42.678;23.364;2023-02-12T11:40:02;95927.31;;;3.98;76.77
6134;BME280;3098;42.678;23.364;2023-02-12T11:42:33;96003.69;;;4.51;77.33
6134;BME280;3098;42.678;23.364;2023-02-12T11:45:05;95840.31;;;3.01;78.20
6134;BME280;3098;42.678;23.364;2023-02-12T11:47:34;95837.47;;;3.19;78.56
6134;BME280;3098;42.678;23.364;2023-02-12T11:50:14;96009.88;;;4.24;78.31
6134;BME280;3098;42.678;23.364;2023-02-12T11:52:48;95756.69;;;2.21;78.92
6134;BME280;3098;42.678;23.364;2023-02-12T11:55:22;95757.00;;;2.70;78.60
6134;BME280;3098;42.678;23.364;2023-02-12T11:57:52;96011.13;;;4.38;77.74
6134;BME280;3098;42.678;23.364;2023-02-12T12:00:25;95944.41;;;4.00;77.94
6134;BME280;3098;42.678;23.364;2023-02-12T12:03:01;95926.63;;;3.69;77.01
6134;BME280;3098;42.678;23.364;2023-02-12T12:05:34;95859.16;;;3.31;77.94
6134;BME280;3098;42.678;23.364;2023-02-12T12:08:06;96012.75;;;4.60;77.10
6134;BME280;3098;42.678;23.364;2023-02-12T12:10:43;96001.56;;;4.70;75.35
6134;BME280;3098;42.678;23.364;2023-02-12T12:13:15;95847.44;;;3.72;75.85
6134;BME280;3098;42.678;23.364;2023-02-12T12:15:56;96001.38;;;4.55;76.48
6134;BME280;3098;42.678;23.364;2023-02-12T12:18:46;95963.72;;;4.28;75.81
6134;BME280;3098;42.678;23.364;2023-02-12T12:21:39;95962.88;;;4.44;74.81
6134;BME280;3098;42.678;23.364;2023-02-12T12:24:12;96018.91;;;4.71;74.88
6134;BME280;3098;42.678;23.364;2023-02-12T12:26:48;95798.31;;;3.13;75.20
6134;BME280;3098;42.678;23.364;2023-02-12T12:29:31;96022.66;;;4.75;76.41
6134;BME280;3098;42.678;23.364;2023-02-12T12:32:11;96018.25;;;5.02;74.54
6134;BME280;3098;42.678;23.364;2023-02-12T12:34:40;96028.72;;;5.19;74.01
6134;BME280;3098;42.678;23.364;2023-02-12T12:37:28;96016.19;;;4.83;74.50
6134;BME280;3098;42.678;23.364;2023-02-12T12:40:12;95780.44;;;3.26;75.03
6134;BME280;3098;42.678;23.364;2023-02-12T12:42:54;95760.25;;;3.27;74.69
6134;BME280;3098;42.678;23.364;2023-02-12T12:45:34;96012.56;;;5.32;73.03
6134;BME280;3098;42.678;23.364;2023-02-12T12:48:19;95910.03;;;4.40;73.00
6134;BME280;3098;42.678;23.364;2023-02-12T12:50:59;95895.91;;;4.25;73.00
6134;BME280;3098;42.678;23.364;2023-02-12T12:53:41;95884.44;;;3.92;73.38
6134;BME280;3098;42.678;23.364;2023-02-12T12:59:24;95983.19;;;4.32;75.00
6134;BME280;3098;42.678;23.364;2023-02-12T13:05:12;96016.81;;;4.68;75.00
6134;BME280;3098;42.678;23.364;2023-02-12T13:07:54;95983.50;;;3.97;76.90
6134;BME280;3098;42.678;23.364;2023-02-12T13:10:33;96018.13;;;4.32;77.25
6134;BME280;3098;42.678;23.364;2023-02-12T13:13:13;96038.31;;;4.48;76.87
6134;BME280;3098;42.678;23.364;2023-02-12T13:15:51;96042.56;;;4.71;76.57
6134;BME280;3098;42.678;23.364;2023-02-12T13:18:41;95953.75;;;4.30;75.70
6134;BME280;3098;42.678;23.364;2023-02-12T13:21:19;95966.03;;;4.24;75.49
6134;BME280;3098;42.678;23.364;2023-02-12T13:23:57;95639.69;;;2.05;75.92
6134;BME280;3098;42.678;23.364;2023-02-12T13:26:31;95827.53;;;3.05;77.09
6134;BME280;3098;42.678;23.364;2023-02-12T13:29:11;95774.09;;;2.72;77.89
6134;BME280;3098;42.678;23.364;2023-02-12T13:31:44;96048.13;;;4.53;77.52
6134;BME280;3098;42.678;23.364;2023-02-12T13:34:15;95889.19;;;3.57;78.21
6134;BME280;3098;42.678;23.364;2023-02-12T13:36:48;95606.28;;;1.79;77.98
6134;BME280;3098;42.678;23.364;2023-02-12T13:39:24;95974.38;;;4.21;78.09
6134;BME280;3098;42.678;23.364;2023-02-12T13:42:01;95822.16;;;3.11;77.57
6134;BME280;3098;42.678;23.364;2023-02-12T13:44:35;96052.44;;;4.42;77.89
6134;BME280;3098;42.678;23.364;2023-02-12T13:47:12;95985.84;;;3.98;77.78
6134;BME280;3098;42.678;23.364;2023-02-12T13:49:50;95588.19;;;1.33;78.10
6134;BME280;3098;42.678;23.364;2023-02-12T13:52:30;96021.41;;;3.73;79.66